Blountsville, Indiana
Current Conditions -  °F | °C
As of 12:53 PM on Saturday 20 Dec 2014 (Local Time) from KMIE Reporting Station
Overcast Overcast  
Wind Chill: 31°   Ceiling: 3200
Heat Index: 31°   Visibility: 9mi
Dew Point: 23°   Wind: 0mph
Humidity: 72%   Direction: NA
Pressure: 30.27"   Gusts: NA
Location:  40.0508°N, 85.2059°W
Report Text: KMIE 201753Z 00000KT 9SM OVC032 M01/M05 A3027 RMK AO2 SLP256 T10061050 10000 21017 58007 $
Loading
Personal Weather Stations






























Interactive Weather Map New forecast layout! Learn more

10-Day Weather Forecast

Advertisements
Track Severe Weather on mobile